Time,TemperatureF,DewpointF,PressureIn,WindDirection,WindDirectionDegrees,WindSpeedMPH,WindSpeedGustMPH,Humidity,HourlyPrecipIn,Conditions,Clouds,dailyrainin,SoftwareType,DateUTC
2013-04-07 00:01:00,63.2,47.3,29.81,South,172,10.0,19.0,56,0.00,,CLR,0.00,VWS V14.01,2013-04-07 05:01:00,
2013-04-07 00:06:00,63.3,47.3,29.81,SSW,196,12.0,18.0,56,0.00,,CLR,0.00,VWS V14.01,2013-04-07 05:06:00,
2013-04-07 00:11:00,63.2,47.3,29.81,SSW,203,10.0,18.0,56,0.00,,CLR,0.00,VWS V14.01,2013-04-07 05:11:00,
2013-04-07 00:16:00,63.1,47.6,29.81,SSE,166,12.0,13.0,57,0.00,,CLR,0.00,VWS V14.01,2013-04-07 05:16:00,
2013-04-07 00:21:00,63.1,47.6,29.81,SSW,209,12.0,15.0,57,0.00,,CLR,0.00,VWS V14.01,2013-04-07 05:21:00,
2013-04-07 00:26:00,63.1,47.6,29.82,SSW,200,5.0,17.0,57,0.00,,CLR,0.00,VWS V14.01,2013-04-07 05:26:00,
2013-04-07 00:31:00,62.9,47.9,29.81,SW,220,5.0,17.0,58,0.00,,CLR,0.00,VWS V14.01,2013-04-07 05:31:00,
2013-04-07 00:36:00,62.7,47.7,29.81,SSW,194,11.0,12.0,58,0.00,,CLR,0.00,VWS V14.01,2013-04-07 05:36:00,
2013-04-07 00:41:00,62.7,47.7,29.81,WSW,239,2.0,21.0,58,0.00,,CLR,0.00,VWS V14.01,2013-04-07 05:41:00,
2013-04-07 00:46:00,62.7,48.2,29.81,SSW,213,5.0,18.0,59,0.00,,CLR,0.00,VWS V14.01,2013-04-07 05:46:00,
2013-04-07 00:51:00,62.6,48.1,29.81,SSW,198,3.0,18.0,59,0.00,,CLR,0.00,VWS V14.01,2013-04-07 05:51:00,
2013-04-07 00:56:00,62.6,48.1,29.81,South,186,12.0,17.0,59,0.00,,CLR,0.00,VWS V14.01,2013-04-07 05:56:00,
2013-04-07 01:01:00,62.5,48.0,29.82,South,190,6.0,17.0,59,0.00,,CLR,0.00,VWS V14.01,2013-04-07 06:01:00,
2013-04-07 01:06:00,62.5,48.4,29.82,WSW,244,6.0,18.0,60,0.00,,CLR,0.00,VWS V14.01,2013-04-07 06:06:00,
2013-04-07 01:11:00,62.5,48.4,29.81,SW,227,4.0,18.0,60,0.00,,CLR,0.00,VWS V14.01,2013-04-07 06:11:00,
2013-04-07 01:16:00,62.3,48.2,29.81,SSW,199,6.0,12.0,60,0.00,,CLR,0.00,VWS V14.01,2013-04-07 06:16:00,
2013-04-07 01:21:00,62.1,48.5,29.81,SW,235,4.0,13.0,61,0.00,,CLR,0.00,VWS V14.01,2013-04-07 06:21:00,
2013-04-07 01:31:00,62.0,48.4,29.81,South,184,9.0,17.0,61,0.00,,CLR,0.00,VWS V14.01,2013-04-07 06:31:00,
2013-04-07 01:36:00,62.0,48.4,29.81,SSW,206,9.0,14.0,61,0.00,,CLR,0.00,VWS V14.01,2013-04-07 06:36:00,
2013-04-07 01:41:00,61.8,48.7,29.81,WSW,238,8.0,8.0,62,0.00,,CLR,0.00,VWS V14.01,2013-04-07 06:41:00,
2013-04-07 01:47:00,61.7,48.6,29.81,SSW,203,7.0,11.0,62,0.00,,CLR,0.00,VWS V14.01,2013-04-07 06:47:00,
2013-04-07 01:52:00,61.6,48.5,29.81,SW,231,5.0,6.0,62,0.00,,CLR,0.00,VWS V14.01,2013-04-07 06:52:00,
2013-04-07 01:57:00,61.4,48.3,29.81,SW,234,9.0,12.0,62,0.00,,CLR,0.00,VWS V14.01,2013-04-07 06:57:00,
2013-04-07 02:02:00,61.4,48.3,29.82,WSW,250,8.0,8.0,62,0.00,,CLR,0.00,VWS V14.01,2013-04-07 07:02:00,
2013-04-07 02:07:00,61.4,48.3,29.81,SSW,194,1.0,9.0,62,0.00,,CLR,0.00,VWS V14.01,2013-04-07 07:07:00,
2013-04-07 02:12:00,61.5,48.4,29.82,SSE,167,5.0,5.0,62,0.00,,CLR,0.00,VWS V14.01,2013-04-07 07:12:00,
2013-04-07 02:17:00,61.6,48.5,29.81,SW,236,7.0,14.0,62,0.00,,CLR,0.00,VWS V14.01,2013-04-07 07:17:00,
2013-04-07 02:22:00,61.8,48.7,29.81,SW,225,3.0,9.0,62,0.00,,CLR,0.00,VWS V14.01,2013-04-07 07:22:00,
2013-04-07 02:27:00,61.8,48.7,29.81,SW,223,5.0,12.0,62,0.00,,CLR,0.00,VWS V14.01,2013-04-07 07:27:00,
2013-04-07 02:32:00,61.7,48.6,29.81,SW,232,2.0,3.0,62,0.00,,BKN080,0.00,VWS V14.01,2013-04-07 07:32:00,
2013-04-07 02:37:00,61.6,48.5,29.81,SSW,192,8.0,14.0,62,0.00,,BKN080,0.00,VWS V14.01,2013-04-07 07:37:00,
2013-04-07 02:42:00,61.5,48.8,29.81,WSW,245,3.0,12.0,63,0.00,,BKN080,0.00,VWS V14.01,2013-04-07 07:42:00,
2013-04-07 02:47:00,61.3,48.6,29.81,SSW,211,4.0,12.0,63,0.00,,BKN080,0.00,VWS V14.01,2013-04-07 07:47:00,
2013-04-07 02:52:00,61.1,48.8,29.81,SW,235,4.0,5.0,64,0.00,,BKN080,0.00,VWS V14.01,2013-04-07 07:52:00,
2013-04-07 02:57:00,61.0,48.8,29.82,SSW,213,2.0,11.0,64,0.00,,BKN080,0.00,VWS V14.01,2013-04-07 07:57:00,
2013-04-07 03:02:00,60.9,48.7,29.82,South,173,10.0,10.0,64,0.00,,BKN080,0.00,VWS V14.01,2013-04-07 08:02:00,
2013-04-07 03:07:00,60.8,48.6,29.82,SW,220,4.0,10.0,64,0.00,,BKN080,0.00,VWS V14.01,2013-04-07 08:07:00,
2013-04-07 03:12:00,60.7,48.9,29.82,SSW,206,5.0,8.0,65,0.00,,BKN080,0.00,VWS V14.01,2013-04-07 08:12:00,
2013-04-07 03:17:00,60.5,48.7,29.82,WSW,248,0.0,9.0,65,0.00,,BKN080,0.00,VWS V14.01,2013-04-07 08:17:00,
2013-04-07 03:22:00,60.3,48.5,29.82,SW,223,5.0,7.0,65,0.00,,BKN080,0.00,VWS V14.01,2013-04-07 08:22:00,
2013-04-07 03:27:00,60.2,48.8,29.82,SW,229,3.0,8.0,66,0.00,,BKN080,0.00,VWS V14.01,2013-04-07 08:27:00,
2013-04-07 03:32:00,60.0,48.6,29.82,WSW,258,6.0,7.0,66,0.00,,OVC060,0.00,VWS V14.01,2013-04-07 08:32:00,
2013-04-07 03:37:00,59.9,48.5,29.82,SW,215,4.0,7.0,66,0.00,,OVC060,0.00,VWS V14.01,2013-04-07 08:37:00,
2013-04-07 03:42:00,59.8,48.8,29.82,SW,221,2.0,7.0,67,0.00,,OVC060,0.00,VWS V14.01,2013-04-07 08:42:00,
2013-04-07 03:47:00,59.7,48.7,29.82,SSW,199,2.0,8.0,67,0.00,,OVC060,0.00,VWS V14.01,2013-04-07 08:47:00,
2013-04-07 03:52:00,59.5,48.5,29.82,SW,235,3.0,4.0,67,0.00,,SCT060,0.00,VWS V14.01,2013-04-07 08:52:00,
2013-04-07 03:57:00,59.4,48.5,29.82,SW,225,7.0,10.0,67,0.00,,SCT060,0.00,VWS V14.01,2013-04-07 08:57:00,
2013-04-07 04:02:00,59.2,48.7,29.82,SW,221,2.0,3.0,68,0.00,,SCT060,0.00,VWS V14.01,2013-04-07 09:02:00,
2013-04-07 04:07:00,59.0,48.5,29.83,SSW,200,1.0,5.0,68,0.00,,SCT060,0.00,VWS V14.01,2013-04-07 09:07:00,
2013-04-07 04:12:00,58.8,48.3,29.83,SSW,201,2.0,5.0,68,0.00,,SCT060,0.00,VWS V14.01,2013-04-07 09:12:00,
2013-04-07 04:17:00,58.6,48.5,29.83,SW,223,0.0,5.0,69,0.00,,SCT060,0.00,VWS V14.01,2013-04-07 09:17:00,
2013-04-07 04:22:00,58.5,48.4,29.83,SW,219,3.0,5.0,69,0.00,,SCT060,0.00,VWS V14.01,2013-04-07 09:22:00,
2013-04-07 04:27:00,58.4,48.3,29.83,SW,223,1.0,5.0,69,0.00,,SCT060,0.00,VWS V14.01,2013-04-07 09:27:00,
2013-04-07 04:32:00,58.2,48.1,29.83,SW,227,0.0,5.0,69,0.00,,CLR,0.00,VWS V14.01,2013-04-07 09:32:00,
2013-04-07 04:37:00,58.0,48.3,29.83,SW,225,3.0,5.0,70,0.00,,CLR,0.00,VWS V14.01,2013-04-07 09:37:00,
2013-04-07 04:42:00,57.9,48.2,29.83,SSW,207,0.0,3.0,70,0.00,,CLR,0.00,VWS V14.01,2013-04-07 09:42:00,
2013-04-07 04:47:00,57.7,48.0,29.83,SSW,193,0.0,4.0,70,0.00,,CLR,0.00,VWS V14.01,2013-04-07 09:47:00,
2013-04-07 04:52:00,57.5,48.2,29.84,SW,216,1.0,3.0,71,0.00,,CLR,0.00,VWS V14.01,2013-04-07 09:52:00,
2013-04-07 04:57:00,57.3,48.0,29.84,SW,216,1.0,3.0,71,0.00,,CLR,0.00,VWS V14.01,2013-04-07 09:57:00,
2013-04-07 05:02:00,57.1,47.8,29.84,SW,215,0.0,2.0,71,0.00,,CLR,0.00,VWS V14.01,2013-04-07 10:02:00,
2013-04-07 05:07:00,57.1,47.8,29.85,SW,215,2.0,3.0,71,0.00,,CLR,0.00,VWS V14.01,2013-04-07 10:07:00,
2013-04-07 05:12:00,57.2,47.9,29.85,SW,218,4.0,5.0,71,0.00,,CLR,0.00,VWS V14.01,2013-04-07 10:12:00,
2013-04-07 05:17:00,57.3,48.0,29.85,SW,224,0.0,5.0,71,0.00,,CLR,0.00,VWS V14.01,2013-04-07 10:17:00,
2013-04-07 05:22:00,57.2,47.9,29.85,South,184,1.0,4.0,71,0.00,,CLR,0.00,VWS V14.01,2013-04-07 10:22:00,
2013-04-07 05:27:00,57.1,47.8,29.85,South,184,2.0,4.0,71,0.00,,CLR,0.00,VWS V14.01,2013-04-07 10:27:00,
2013-04-07 05:32:00,56.9,47.6,29.85,SW,219,1.0,5.0,71,0.00,,SCT085,0.00,VWS V14.01,2013-04-07 10:32:00,
2013-04-07 05:37:00,56.9,48.0,29.85,SW,223,0.0,5.0,72,0.00,,SCT085,0.00,VWS V14.01,2013-04-07 10:37:00,
2013-04-07 05:43:00,56.8,47.9,29.86,SW,214,1.0,5.0,72,0.00,,SCT085,0.00,VWS V14.01,2013-04-07 10:43:00,
2013-04-07 05:48:00,56.8,47.9,29.86,SW,217,0.0,5.0,72,0.00,,SCT085,0.00,VWS V14.01,2013-04-07 10:48:00,
2013-04-07 05:53:00,56.9,48.0,29.86,SW,217,0.0,2.0,72,0.00,,SCT085,0.00,VWS V14.01,2013-04-07 10:53:00,
2013-04-07 05:58:00,56.8,47.9,29.86,SW,217,1.0,2.0,72,0.00,,SCT085,0.00,VWS V14.01,2013-04-07 10:58:00,
2013-04-07 06:03:00,56.6,47.7,29.86,SW,217,0.0,0.0,72,0.00,,SCT085,0.00,VWS V14.01,2013-04-07 11:03:00,
2013-04-07 06:08:00,56.5,47.6,29.86,SW,217,0.0,3.0,72,0.00,,SCT085,0.00,VWS V14.01,2013-04-07 11:08:00,
2013-04-07 06:13:00,56.4,47.9,29.86,SW,217,0.0,0.0,73,0.00,,SCT085,0.00,VWS V14.01,2013-04-07 11:13:00,
2013-04-07 06:18:00,56.3,47.8,29.87,SW,217,0.0,1.0,73,0.00,,SCT085,0.00,VWS V14.01,2013-04-07 11:18:00,
2013-04-07 06:23:00,56.3,47.8,29.87,SW,217,0.0,0.0,73,0.00,,SCT085,0.00,VWS V14.01,2013-04-07 11:23:00,
2013-04-07 06:28:00,56.3,47.8,29.87,SW,219,0.0,3.0,73,0.00,,SCT085,0.00,VWS V14.01,2013-04-07 11:28:00,
2013-04-07 06:33:00,56.2,47.7,29.87,SW,219,0.0,0.0,73,0.00,,SCT090,0.00,VWS V14.01,2013-04-07 11:33:00,
2013-04-07 06:38:00,56.2,47.7,29.87,SW,219,0.0,1.0,73,0.00,,SCT090,0.00,VWS V14.01,2013-04-07 11:38:00,
2013-04-07 06:43:00,56.2,47.7,29.88,SW,219,0.0,2.0,73,0.00,,SCT090,0.00,VWS V14.01,2013-04-07 11:43:00,
2013-04-07 06:48:00,56.1,47.6,29.88,SW,219,0.0,2.0,73,0.00,,SCT090,0.00,VWS V14.01,2013-04-07 11:48:00,
2013-04-07 06:53:00,55.9,47.7,29.88,SW,218,0.0,1.0,74,0.00,,SCT090,0.00,VWS V14.01,2013-04-07 11:53:00,
2013-04-07 06:58:00,56.0,47.8,29.89,SW,219,0.0,1.0,74,0.00,,SCT090,0.00,VWS V14.01,2013-04-07 11:58:00,
2013-04-07 07:08:00,56.2,48.0,29.89,SW,219,0.0,1.0,74,0.00,,SCT090,0.00,VWS V14.01,2013-04-07 12:08:00,
2013-04-07 07:13:00,56.4,48.2,29.89,SW,219,0.0,0.0,74,0.00,,SCT090,0.00,VWS V14.01,2013-04-07 12:13:00,
2013-04-07 07:18:00,56.5,48.3,29.89,SW,219,0.0,2.0,74,0.00,,SCT090,0.00,VWS V14.01,2013-04-07 12:18:00,
2013-04-07 07:23:00,56.6,48.4,29.89,SW,218,0.0,1.0,74,0.00,,SCT090,0.00,VWS V14.01,2013-04-07 12:23:00,
2013-04-07 07:28:00,56.7,48.5,29.89,SW,218,1.0,3.0,74,0.00,,SCT090,0.00,VWS V14.01,2013-04-07 12:28:00,
2013-04-07 07:33:00,56.8,48.2,29.89,SSW,209,0.0,2.0,73,0.00,,BKN100,0.00,VWS V14.01,2013-04-07 12:33:00,
2013-04-07 07:38:00,56.9,48.3,29.89,South,184,0.0,4.0,73,0.00,,BKN100,0.00,VWS V14.01,2013-04-07 12:38:00,
2013-04-07 07:43:00,57.1,48.5,29.89,South,184,0.0,0.0,73,0.00,,BKN100,0.00,VWS V14.01,2013-04-07 12:43:00,
2013-04-07 07:48:00,57.2,49.0,29.89,South,184,0.0,0.0,74,0.00,,BKN100,0.00,VWS V14.01,2013-04-07 12:48:00,
2013-04-07 07:53:00,57.4,49.2,29.89,South,184,0.0,3.0,74,0.00,,OVC100,0.00,VWS V14.01,2013-04-07 12:53:00,
2013-04-07 07:58:00,57.6,49.0,29.89,South,184,0.0,5.0,73,0.00,,OVC100,0.00,VWS V14.01,2013-04-07 12:58:00,
2013-04-07 08:03:00,57.9,49.3,29.89,South,184,2.0,4.0,73,0.00,,OVC100,0.00,VWS V14.01,2013-04-07 13:03:00,
2013-04-07 08:08:00,58.2,49.6,29.90,South,184,0.0,4.0,73,0.00,,OVC100,0.00,VWS V14.01,2013-04-07 13:08:00,
2013-04-07 08:13:00,58.7,49.7,29.90,South,184,5.0,5.0,72,0.00,,OVC100,0.00,VWS V14.01,2013-04-07 13:13:00,
2013-04-07 08:18:00,59.1,49.7,29.90,SSW,194,3.0,8.0,71,0.00,,OVC100,0.00,VWS V14.01,2013-04-07 13:18:00,
2013-04-07 08:31:00,60.0,50.2,29.90,South,180,0.0,9.0,70,0.00,,CLR,0.00,VWS V14.01,2013-04-07 13:31:00,
2013-04-07 08:39:00,60.5,50.3,29.90,SW,234,5.0,8.0,69,0.00,,CLR,0.00,VWS V14.01,2013-04-07 13:39:00,
2013-04-07 08:44:00,60.6,50.4,29.90,South,188,2.0,5.0,69,0.00,,CLR,0.00,VWS V14.01,2013-04-07 13:44:00,
2013-04-07 08:49:00,60.7,50.5,29.91,SW,216,1.0,5.0,69,0.00,,CLR,0.00,VWS V14.01,2013-04-07 13:49:00,
2013-04-07 08:54:00,60.9,50.7,29.90,SW,214,0.0,3.0,69,0.00,,SCT100,0.00,VWS V14.01,2013-04-07 13:54:00,
2013-04-07 08:59:00,61.3,51.1,29.90,SW,214,2.0,8.0,69,0.00,,SCT100,0.00,VWS V14.01,2013-04-07 13:59:00,
2013-04-07 09:09:00,61.8,51.1,29.90,SW,219,3.0,7.0,68,0.00,,SCT100,0.00,VWS V14.01,2013-04-07 14:09:00,
2013-04-07 09:14:00,62.0,51.3,29.90,SSW,202,5.0,8.0,68,0.00,,SCT100,0.00,VWS V14.01,2013-04-07 14:14:00,
2013-04-07 09:19:00,62.2,51.1,29.90,SW,232,1.0,8.0,67,0.00,,SCT100,0.00,VWS V14.01,2013-04-07 14:19:00,
2013-04-07 09:24:00,62.4,51.3,29.90,SW,223,2.0,5.0,67,0.00,,SCT100,0.00,VWS V14.01,2013-04-07 14:24:00,
2013-04-07 09:29:00,62.7,51.6,29.90,SW,215,5.0,10.0,67,0.00,,SCT100,0.00,VWS V14.01,2013-04-07 14:29:00,
2013-04-07 09:34:00,63.0,51.5,29.90,South,176,6.0,8.0,66,0.00,,SCT100,0.00,VWS V14.01,2013-04-07 14:34:00,
2013-04-07 09:39:00,63.4,51.4,29.90,SSW,211,3.0,8.0,65,0.00,,SCT100,0.00,VWS V14.01,2013-04-07 14:39:00,
2013-04-07 09:45:00,63.8,52.2,29.91,SW,232,1.0,3.0,66,0.00,,SCT100,0.00,VWS V14.01,2013-04-07 14:45:00,
2013-04-07 09:50:00,64.1,51.7,29.91,SW,219,6.0,7.0,64,0.00,,SCT100,0.00,VWS V14.01,2013-04-07 14:50:00,
2013-04-07 09:55:00,64.4,51.5,29.91,SW,218,3.0,9.0,63,0.00,,SCT100,0.00,VWS V14.01,2013-04-07 14:55:00,
2013-04-07 10:00:00,64.5,51.6,29.91,SW,228,0.0,10.0,63,0.00,,SCT100,0.00,VWS V14.01,2013-04-07 15:00:00,
2013-04-07 10:05:00,64.9,52.0,29.91,SSW,202,2.0,4.0,63,0.00,,SCT100,0.00,VWS V14.01,2013-04-07 15:05:00,
2013-04-07 10:10:00,65.3,52.0,29.91,WSW,254,4.0,7.0,62,0.00,,SCT100,0.00,VWS V14.01,2013-04-07 15:10:00,
2013-04-07 10:15:00,65.1,50.9,29.91,WSW,249,4.0,7.0,60,0.00,,SCT100,0.00,VWS V14.01,2013-04-07 15:15:00,
2013-04-07 10:20:00,65.1,51.8,29.91,SW,223,3.0,7.0,62,0.00,,SCT100,0.00,VWS V14.01,2013-04-07 15:20:00,
2013-04-07 10:25:00,65.5,51.7,29.91,SSW,211,2.0,6.0,61,0.00,,SCT100,0.00,VWS V14.01,2013-04-07 15:25:00,
2013-04-07 10:30:00,66.5,52.7,29.91,SSW,213,1.0,6.0,61,0.00,,SCT100,0.00,VWS V14.01,2013-04-07 15:30:00,
2013-04-07 10:35:00,66.6,52.8,29.91,SSW,196,2.0,4.0,61,0.00,,CLR,0.00,VWS V14.01,2013-04-07 15:35:00,
2013-04-07 10:40:00,66.9,52.1,29.91,SW,231,1.0,4.0,59,0.00,,CLR,0.00,VWS V14.01,2013-04-07 15:40:00,
2013-04-07 10:45:00,66.9,51.7,29.91,SW,227,0.0,5.0,58,0.00,,CLR,0.00,VWS V14.01,2013-04-07 15:45:00,
2013-04-07 10:50:00,67.4,52.1,29.92,SSW,198,2.0,5.0,58,0.00,,CLR,0.00,VWS V14.01,2013-04-07 15:50:00,
2013-04-07 10:55:00,67.7,51.9,29.92,SSW,196,0.0,3.0,57,0.00,,SCT095,0.00,VWS V14.01,2013-04-07 15:55:00,
2013-04-07 11:00:00,67.9,52.1,29.92,South,190,0.0,4.0,57,0.00,,SCT095,0.00,VWS V14.01,2013-04-07 16:00:00,
2013-04-07 11:05:00,68.2,52.4,29.92,South,190,2.0,4.0,57,0.00,,SCT095,0.00,VWS V14.01,2013-04-07 16:05:00,
2013-04-07 11:10:00,68.2,51.4,29.92,South,176,0.0,5.0,55,0.00,,SCT095,0.00,VWS V14.01,2013-04-07 16:10:00,
2013-04-07 11:15:00,67.7,51.9,29.92,South,184,1.0,6.0,57,0.00,,SCT095,0.00,VWS V14.01,2013-04-07 16:15:00,
2013-04-07 11:20:00,68.2,51.9,29.92,WNW,292,1.0,6.0,56,0.00,,SCT095,0.00,VWS V14.01,2013-04-07 16:20:00,
2013-04-07 11:25:00,68.9,52.1,29.92,South,188,0.0,6.0,55,0.00,,SCT095,0.00,VWS V14.01,2013-04-07 16:25:00,
2013-04-07 11:30:00,68.8,52.0,29.92,SW,227,1.0,6.0,55,0.00,,SCT095,0.00,VWS V14.01,2013-04-07 16:30:00,
2013-04-07 11:35:00,68.8,52.5,29.92,WSW,253,3.0,5.0,56,0.00,,CLR,0.00,VWS V14.01,2013-04-07 16:35:00,
2013-04-07 11:40:00,68.9,52.6,29.92,South,175,4.0,8.0,56,0.00,,CLR,0.00,VWS V14.01,2013-04-07 16:40:00,
2013-04-07 11:45:00,69.1,52.3,29.92,South,183,0.0,2.0,55,0.00,,CLR,0.00,VWS V14.01,2013-04-07 16:45:00,
2013-04-07 11:50:00,69.9,53.0,29.92,South,182,0.0,2.0,55,0.00,,CLR,0.00,VWS V14.01,2013-04-07 16:50:00,
2013-04-07 11:55:00,71.1,53.6,29.92,SE,138,5.0,5.0,54,0.00,,SCT095,0.00,VWS V14.01,2013-04-07 16:55:00,
2013-04-07 12:01:00,70.3,53.4,29.92,East,80,2.0,6.0,55,0.00,,SCT095,0.00,VWS V14.01,2013-04-07 17:01:00,
2013-04-07 12:06:00,70.3,52.9,29.92,SE,145,0.0,6.0,54,0.00,,SCT095,0.00,VWS V14.01,2013-04-07 17:06:00,
2013-04-07 12:11:00,70.7,53.3,29.92,WSW,237,0.0,6.0,54,0.00,,SCT095,0.00,VWS V14.01,2013-04-07 17:11:00,
2013-04-07 12:16:00,71.1,53.6,29.92,SE,140,6.0,7.0,54,0.00,,SCT095,0.00,VWS V14.01,2013-04-07 17:16:00,
2013-04-07 12:21:00,70.8,51.8,29.91,SE,134,4.0,7.0,51,0.00,,SCT095,0.00,VWS V14.01,2013-04-07 17:21:00,
2013-04-07 12:26:00,71.8,53.2,29.91,South,182,1.0,7.0,52,0.00,,SCT095,0.00,VWS V14.01,2013-04-07 17:26:00,
2013-04-07 12:31:00,71.7,52.6,29.91,SSE,147,5.0,7.0,51,0.00,,SCT095,0.00,VWS V14.01,2013-04-07 17:31:00,
2013-04-07 12:36:00,71.9,52.8,29.90,SSE,150,1.0,8.0,51,0.00,,CLR,0.00,VWS V14.01,2013-04-07 17:36:00,
2013-04-07 12:41:00,71.9,52.8,29.90,SSE,162,1.0,8.0,51,0.00,,CLR,0.00,VWS V14.01,2013-04-07 17:41:00,
2013-04-07 12:46:00,72.0,53.4,29.90,East,99,0.0,5.0,52,0.00,,CLR,0.00,VWS V14.01,2013-04-07 17:46:00,
2013-04-07 12:51:00,72.4,53.8,29.90,South,169,4.0,8.0,52,0.00,,CLR,0.00,VWS V14.01,2013-04-07 17:51:00,
2013-04-07 12:56:00,72.3,53.2,29.90,South,181,1.0,8.0,51,0.00,,CLR,0.00,VWS V14.01,2013-04-07 17:56:00,
2013-04-07 13:01:00,73.1,53.4,29.90,SE,142,8.0,8.0,50,0.00,,CLR,0.00,VWS V14.01,2013-04-07 18:01:00,
2013-04-07 13:11:00,73.3,53.6,29.89,SSE,155,1.0,9.0,50,0.00,,CLR,0.00,VWS V14.01,2013-04-07 18:11:00,
2013-04-07 13:21:00,73.5,53.2,29.89,South,187,2.0,9.0,49,0.00,,CLR,0.00,VWS V14.01,2013-04-07 18:21:00,
2013-04-07 13:26:00,73.7,53.4,29.89,South,171,0.0,7.0,49,0.00,,CLR,0.00,VWS V14.01,2013-04-07 18:26:00,
2013-04-07 13:31:00,73.8,54.0,29.89,SE,126,0.0,0.0,50,0.00,,SCT060,0.00,VWS V14.01,2013-04-07 18:31:00,
2013-04-07 13:41:00,75.5,55.6,29.89,South,171,5.0,8.0,50,0.00,,SCT060,0.00,VWS V14.01,2013-04-07 18:41:00,
2013-04-07 13:47:00,74.4,53.5,29.89,South,178,0.0,8.0,48,0.00,,SCT060,0.00,VWS V14.01,2013-04-07 18:47:00,
2013-04-07 13:52:00,74.6,53.6,29.89,SE,141,0.0,0.0,48,0.00,,CLR,0.00,VWS V14.01,2013-04-07 18:52:00,
2013-04-07 13:57:00,74.7,54.3,29.89,South,169,2.0,4.0,49,0.00,,CLR,0.00,VWS V14.01,2013-04-07 18:57:00,
2013-04-07 14:02:00,74.5,54.7,29.89,South,169,2.0,4.0,50,0.00,,CLR,0.00,VWS V14.01,2013-04-07 19:02:00,
2013-04-07 14:07:00,74.7,53.7,29.88,South,182,4.0,10.0,48,0.00,,CLR,0.00,VWS V14.01,2013-04-07 19:07:00,
2013-04-07 14:12:00,74.0,54.7,29.88,South,184,3.0,4.0,51,0.00,,CLR,0.00,VWS V14.01,2013-04-07 19:12:00,
2013-04-07 14:17:00,74.7,54.3,29.88,SSW,207,1.0,7.0,49,0.00,,CLR,0.00,VWS V14.01,2013-04-07 19:17:00,
2013-04-07 14:22:00,74.9,53.9,29.88,SSW,200,0.0,2.0,48,0.00,,CLR,0.00,VWS V14.01,2013-04-07 19:22:00,
2013-04-07 14:27:00,74.9,53.9,29.88,SSW,201,2.0,4.0,48,0.00,,CLR,0.00,VWS V14.01,2013-04-07 19:27:00,
2013-04-07 14:32:00,75.5,55.0,29.87,West,267,4.0,5.0,49,0.00,,SCT085,0.00,VWS V14.01,2013-04-07 19:32:00,
2013-04-07 14:37:00,76.0,54.9,29.87,South,178,9.0,9.0,48,0.00,,SCT085,0.00,VWS V14.01,2013-04-07 19:37:00,
2013-04-07 14:42:00,75.5,53.9,29.87,South,178,4.0,4.0,47,0.00,,SCT085,0.00,VWS V14.01,2013-04-07 19:42:00,
2013-04-07 14:47:00,75.0,53.4,29.87,SW,227,4.0,8.0,47,0.00,,SCT085,0.00,VWS V14.01,2013-04-07 19:47:00,
2013-04-07 14:52:00,75.3,54.3,29.87,South,169,1.0,5.0,48,0.00,,SCT055,0.00,VWS V14.01,2013-04-07 19:52:00,
2013-04-07 14:57:00,75.7,53.5,29.87,ESE,121,2.0,7.0,46,0.00,,SCT055,0.00,VWS V14.01,2013-04-07 19:57:00,
2013-04-07 15:02:00,76.3,54.0,29.87,SE,124,5.0,5.0,46,0.00,,SCT055,0.00,VWS V14.01,2013-04-07 20:02:00,
2013-04-07 15:07:00,75.9,54.8,29.87,SSW,207,1.0,6.0,48,0.00,,SCT055,0.00,VWS V14.01,2013-04-07 20:07:00,
2013-04-07 15:12:00,76.5,54.2,29.87,WSW,255,2.0,5.0,46,0.00,,SCT055,0.00,VWS V14.01,2013-04-07 20:12:00,
2013-04-07 15:17:00,76.5,54.8,29.87,WSW,242,4.0,10.0,47,0.00,,SCT055,0.00,VWS V14.01,2013-04-07 20:17:00,
2013-04-07 15:22:00,76.3,54.6,29.86,South,172,5.0,5.0,47,0.00,,SCT055,0.00,VWS V14.01,2013-04-07 20:22:00,
2013-04-07 15:27:00,76.4,55.3,29.86,SSW,192,5.0,9.0,48,0.00,,SCT055,0.00,VWS V14.01,2013-04-07 20:27:00,
2013-04-07 15:32:00,77.1,55.9,29.86,SSE,166,2.0,5.0,48,0.00,,SCT070,0.00,VWS V14.01,2013-04-07 20:32:00,
2013-04-07 15:37:00,77.2,54.8,29.86,SE,144,4.0,7.0,46,0.00,,SCT070,0.00,VWS V14.01,2013-04-07 20:37:00,
2013-04-07 15:42:00,76.4,55.3,29.86,SSE,161,5.0,8.0,48,0.00,,SCT070,0.00,VWS V14.01,2013-04-07 20:42:00,
2013-04-07 15:47:00,76.2,55.1,29.85,SSE,149,4.0,8.0,48,0.00,,SCT070,0.00,VWS V14.01,2013-04-07 20:47:00,
2013-04-07 15:52:00,76.8,55.1,29.85,SE,128,7.0,8.0,47,0.00,,SCT100,0.00,VWS V14.01,2013-04-07 20:52:00,
2013-04-07 15:57:00,76.8,54.5,29.85,SE,131,2.0,8.0,46,0.00,,SCT100,0.00,VWS V14.01,2013-04-07 20:57:00,
2013-04-07 16:02:00,76.5,54.8,29.84,ESE,102,0.0,5.0,47,0.00,,SCT100,0.00,VWS V14.01,2013-04-07 21:02:00,
2013-04-07 16:07:00,76.2,54.5,29.84,SSE,163,6.0,7.0,47,0.00,,SCT100,0.00,VWS V14.01,2013-04-07 21:07:00,
2013-04-07 16:18:00,77.9,56.1,29.84,ESE,108,6.0,6.0,47,0.00,,SCT100,0.00,VWS V14.01,2013-04-07 21:18:00,
2013-04-07 16:23:00,76.8,55.1,29.84,South,177,7.0,7.0,47,0.00,,SCT100,0.00,VWS V14.01,2013-04-07 21:23:00,
2013-04-07 16:28:00,76.5,55.4,29.84,South,177,0.0,7.0,48,0.00,,SCT100,0.00,VWS V14.01,2013-04-07 21:28:00,
2013-04-07 16:33:00,77.4,54.4,29.84,SSE,168,0.0,6.0,45,0.00,,CLR,0.00,VWS V14.01,2013-04-07 21:33:00,
2013-04-07 16:38:00,77.0,52.8,29.84,SSE,153,1.0,8.0,43,0.00,,CLR,0.00,VWS V14.01,2013-04-07 21:38:00,
2013-04-07 16:43:00,76.7,53.8,29.84,South,179,2.0,9.0,45,0.00,,CLR,0.00,VWS V14.01,2013-04-07 21:43:00,
2013-04-07 16:48:00,76.4,54.1,29.83,SE,131,0.0,9.0,46,0.00,,CLR,0.00,VWS V14.01,2013-04-07 21:48:00,
2013-04-07 16:53:00,76.2,54.5,29.83,SSE,159,0.0,4.0,47,0.00,,SCT065,0.00,VWS V14.01,2013-04-07 21:53:00,
2013-04-07 16:58:00,76.1,55.0,29.83,SSE,159,1.0,8.0,48,0.00,,SCT065,0.00,VWS V14.01,2013-04-07 21:58:00,
2013-04-07 17:03:00,75.7,55.8,29.83,SE,140,1.0,7.0,50,0.00,,SCT065,0.00,VWS V14.01,2013-04-07 22:03:00,
2013-04-07 17:08:00,75.3,55.4,29.83,SSE,167,0.0,7.0,50,0.00,,SCT065,0.00,VWS V14.01,2013-04-07 22:08:00,
2013-04-07 17:13:00,75.0,55.7,29.83,ESE,106,7.0,9.0,51,0.00,,SCT065,0.00,VWS V14.01,2013-04-07 22:13:00,
2013-04-07 17:18:00,74.5,56.3,29.83,SE,145,1.0,10.0,53,0.00,,SCT065,0.00,VWS V14.01,2013-04-07 22:18:00,
2013-04-07 17:23:00,74.1,57.9,29.84,SSE,163,0.0,5.0,57,0.00,,SCT065,0.00,VWS V14.01,2013-04-07 22:23:00,
2013-04-07 17:28:00,73.3,58.1,29.84,South,183,2.0,7.0,59,0.00,,SCT065,0.00,VWS V14.01,2013-04-07 22:28:00,
2013-04-07 17:33:00,72.4,59.5,29.85,South,170,0.0,4.0,64,0.01,,BKN100,0.01,VWS V14.01,2013-04-07 22:33:00,
2013-04-07 17:38:00,71.0,59.9,29.85,SSW,195,6.0,9.0,68,0.03,,BKN100,0.03,VWS V14.01,2013-04-07 22:38:00,
2013-04-07 17:43:00,68.3,55.7,29.85,South,171,13.0,21.0,64,0.06,,BKN100,0.06,VWS V14.01,2013-04-07 22:43:00,
2013-04-07 17:48:00,65.0,54.2,29.86,SSE,147,4.0,21.0,68,0.10,,BKN100,0.10,VWS V14.01,2013-04-07 22:48:00,
2013-04-07 17:53:00,62.8,53.7,29.85,ESE,102,2.0,7.0,72,0.13,,OVC090,0.13,VWS V14.01,2013-04-07 22:53:00,
2013-04-07 17:58:00,61.9,53.9,29.87,WNW,299,2.0,7.0,75,0.17,,OVC090,0.17,VWS V14.01,2013-04-07 22:58:00,
2013-04-07 18:03:00,60.8,53.5,29.89,NNW,327,0.0,8.0,77,0.19,,OVC090,0.19,VWS V14.01,2013-04-07 23:03:00,
2013-04-07 18:08:00,58.3,51.5,29.87,SE,124,0.0,8.0,78,0.23,,OVC090,0.23,VWS V14.01,2013-04-07 23:08:00,
2013-04-07 18:13:00,56.8,50.7,29.86,SE,124,1.0,4.0,80,0.25,,OVC090,0.25,VWS V14.01,2013-04-07 23:13:00,
2013-04-07 18:18:00,56.8,51.0,29.86,SE,124,0.0,4.0,81,0.28,,OVC090,0.28,VWS V14.01,2013-04-07 23:18:00,
2013-04-07 18:23:00,57.0,51.2,29.86,ESE,121,0.0,5.0,81,0.31,,OVC090,0.31,VWS V14.01,2013-04-07 23:23:00,
2013-04-07 18:28:00,56.8,51.0,29.86,ESE,105,0.0,5.0,81,0.34,,OVC090,0.34,VWS V14.01,2013-04-07 23:28:00,
2013-04-07 18:33:00,56.9,51.1,29.86,ESE,105,0.0,2.0,81,0.35,,OVC060,0.36,VWS V14.01,2013-04-07 23:33:00,
2013-04-07 18:41:00,57.2,51.4,29.85,SE,125,1.0,7.0,81,0.38,,OVC060,0.39,VWS V14.01,2013-04-07 23:41:00,
2013-04-07 18:49:00,57.5,51.7,29.86,East,92,0.0,6.0,81,0.37,,OVC060,0.41,VWS V14.01,2013-04-07 23:49:00,
2013-04-07 18:59:00,57.9,52.1,29.86,ESE,112,0.0,6.0,81,0.31,,OVC080,0.43,VWS V14.01,2013-04-07 23:59:00,
2013-04-07 19:04:00,58.1,52.3,29.85,East,88,0.0,1.0,81,0.26,,OVC080,0.44,VWS V14.01,2013-04-08 00:04:00,
2013-04-07 19:09:00,58.1,52.3,29.84,ESE,104,0.0,4.0,81,0.27,,OVC080,0.45,VWS V14.01,2013-04-08 00:09:00,
2013-04-07 19:14:00,58.1,52.3,29.84,ESE,104,0.0,1.0,81,0.22,,BKN095,0.46,VWS V14.01,2013-04-08 00:14:00,
2013-04-07 19:19:00,58.1,52.3,29.84,ESE,104,0.0,1.0,81,0.23,,BKN095,0.47,VWS V14.01,2013-04-08 00:19:00,
2013-04-07 19:24:00,58.0,52.2,29.84,ESE,104,0.0,0.0,81,0.18,,BKN095,0.48,VWS V14.01,2013-04-08 00:24:00,
2013-04-07 19:29:00,58.0,52.2,29.85,ESE,104,0.0,0.0,81,0.19,,BKN095,0.49,VWS V14.01,2013-04-08 00:29:00,
2013-04-07 19:34:00,58.1,52.3,29.85,ESE,104,1.0,1.0,81,0.14,,SCT095,0.49,VWS V14.01,2013-04-08 00:34:00,
2013-04-07 19:39:00,58.2,52.4,29.85,ESE,104,0.0,1.0,81,0.15,,SCT095,0.50,VWS V14.01,2013-04-08 00:39:00,
2013-04-07 19:44:00,58.3,52.5,29.85,ESE,104,0.0,0.0,81,0.11,,SCT095,0.50,VWS V14.01,2013-04-08 00:44:00,
2013-04-07 19:49:00,58.5,52.7,29.85,ESE,104,0.0,0.0,81,0.11,,SCT095,0.50,VWS V14.01,2013-04-08 00:49:00,
2013-04-07 19:54:00,58.5,52.7,29.85,ESE,104,0.0,0.0,81,0.08,,SCT120,0.50,VWS V14.01,2013-04-08 00:54:00,
2013-04-07 19:59:00,58.6,52.8,29.85,ESE,104,0.0,0.0,81,0.08,,SCT120,0.50,VWS V14.01,2013-04-08 00:59:00,
2013-04-07 20:04:00,58.7,52.9,29.85,ESE,104,0.0,0.0,81,0.06,,SCT120,0.50,VWS V14.01,2013-04-08 01:04:00,
2013-04-07 20:09:00,58.8,53.0,29.85,ESE,104,0.0,0.0,81,0.06,,SCT120,0.50,VWS V14.01,2013-04-08 01:09:00,
2013-04-07 20:14:00,58.9,53.1,29.85,ESE,104,0.0,0.0,81,0.05,,SCT120,0.50,VWS V14.01,2013-04-08 01:14:00,
2013-04-07 20:19:00,58.9,53.1,29.85,ESE,104,0.0,1.0,81,0.05,,SCT120,0.50,VWS V14.01,2013-04-08 01:19:00,
2013-04-07 20:24:00,59.0,53.8,29.86,ESE,104,0.0,1.0,83,0.03,,SCT120,0.50,VWS V14.01,2013-04-08 01:24:00,
2013-04-07 20:29:00,59.2,53.4,29.86,ESE,104,0.0,1.0,81,0.03,,SCT120,0.50,VWS V14.01,2013-04-08 01:29:00,
2013-04-07 20:34:00,59.3,53.5,29.86,ESE,104,0.0,0.0,81,0.01,,BKN120,0.50,VWS V14.01,2013-04-08 01:34:00,
2013-04-07 20:39:00,59.4,53.6,29.86,ESE,104,0.0,1.0,81,0.02,,BKN120,0.51,VWS V14.01,2013-04-08 01:39:00,
2013-04-07 20:44:00,59.6,53.8,29.86,ESE,104,0.0,0.0,81,0.01,,BKN120,0.51,VWS V14.01,2013-04-08 01:44:00,
2013-04-07 20:49:00,59.8,54.0,29.86,ESE,104,0.0,0.0,81,0.01,,BKN120,0.51,VWS V14.01,2013-04-08 01:49:00,
2013-04-07 20:54:00,60.0,54.2,29.86,ESE,104,0.0,0.0,81,0.01,,-RA,0.51,VWS V14.01,2013-04-08 01:54:00,
2013-04-07 20:59:00,60.5,54.7,29.86,ESE,104,0.0,0.0,81,0.02,,-RA,0.52,VWS V14.01,2013-04-08 01:59:00,
2013-04-07 21:04:00,60.8,54.9,29.86,ESE,104,0.0,2.0,81,0.02,,-RA,0.52,VWS V14.01,2013-04-08 02:04:00,
2013-04-07 21:09:00,61.0,55.1,29.86,ESE,104,0.0,2.0,81,0.02,,-RA,0.52,VWS V14.01,2013-04-08 02:09:00,
2013-04-07 21:14:00,61.1,55.2,29.86,ESE,104,0.0,1.0,81,0.03,,-RA,0.53,VWS V14.01,2013-04-08 02:14:00,
2013-04-07 21:20:00,61.2,55.3,29.86,SSE,150,0.0,6.0,81,0.03,,-RA,0.53,VWS V14.01,2013-04-08 02:20:00,
2013-04-07 21:25:00,61.4,55.5,29.86,SSE,150,1.0,4.0,81,0.03,,-RA,0.53,VWS V14.01,2013-04-08 02:25:00,
2013-04-07 21:30:00,61.6,55.7,29.86,SSE,150,0.0,4.0,81,0.03,,-RA,0.53,VWS V14.01,2013-04-08 02:30:00,
2013-04-07 21:40:00,62.9,56.6,29.86,South,184,3.0,11.0,80,0.04,,BKN100,0.54,VWS V14.01,2013-04-08 02:40:00,
2013-04-07 21:51:00,64.3,57.7,29.87,South,188,4.0,10.0,79,0.03,,BKN100,0.54,VWS V14.01,2013-04-08 02:51:00,
2013-04-07 22:00:00,64.4,57.8,29.87,South,173,1.0,9.0,79,0.03,,BKN100,0.54,VWS V14.01,2013-04-08 03:00:00,
2013-04-07 22:05:00,64.4,57.4,29.88,South,173,5.0,6.0,78,0.02,,BKN100,0.54,VWS V14.01,2013-04-08 03:05:00,
2013-04-07 22:10:00,64.3,57.7,29.88,South,184,2.0,7.0,79,0.02,,BKN100,0.54,VWS V14.01,2013-04-08 03:10:00,
2013-04-07 22:15:00,64.3,57.7,29.88,South,184,2.0,3.0,79,0.01,,BKN100,0.54,VWS V14.01,2013-04-08 03:15:00,
2013-04-07 22:20:00,64.3,57.3,29.88,South,184,0.0,5.0,78,0.01,,BKN100,0.54,VWS V14.01,2013-04-08 03:20:00,
2013-04-07 22:26:00,64.3,57.3,29.88,South,184,2.0,3.0,78,0.01,,BKN100,0.54,VWS V14.01,2013-04-08 03:26:00,
2013-04-07 22:31:00,64.4,57.4,29.88,South,186,5.0,8.0,78,0.01,,BKN100,0.54,VWS V14.01,2013-04-08 03:31:00,
2013-04-07 22:41:00,64.6,57.2,29.88,South,186,5.0,9.0,77,0.01,,OVC100,0.54,VWS V14.01,2013-04-08 03:41:00,
2013-04-07 22:46:00,64.6,57.2,29.88,South,188,7.0,9.0,77,0.00,,OVC100,0.54,VWS V14.01,2013-04-08 03:46:00,
2013-04-07 22:51:00,64.6,57.2,29.88,South,173,1.0,11.0,77,0.00,,OVC110,0.54,VWS V14.01,2013-04-08 03:51:00,
2013-04-07 22:56:00,64.5,57.1,29.88,South,183,6.0,10.0,77,0.00,,OVC110,0.54,VWS V14.01,2013-04-08 03:56:00,
2013-04-07 23:01:00,64.4,57.0,29.88,South,174,1.0,10.0,77,0.00,,OVC110,0.54,VWS V14.01,2013-04-08 04:01:00,
2013-04-07 23:11:00,64.3,57.0,29.88,South,186,8.0,9.0,77,0.00,,OVC110,0.54,VWS V14.01,2013-04-08 04:11:00,
2013-04-07 23:16:00,64.1,56.8,29.88,South,178,4.0,9.0,77,0.00,,OVC110,0.54,VWS V14.01,2013-04-08 04:16:00,
2013-04-07 23:21:00,64.0,56.7,29.88,South,188,9.0,13.0,77,0.00,,OVC110,0.54,VWS V14.01,2013-04-08 04:21:00,
2013-04-07 23:26:00,64.1,56.8,29.87,SSE,167,11.0,11.0,77,0.00,,OVC110,0.54,VWS V14.01,2013-04-08 04:26:00,
2013-04-07 23:31:00,64.1,56.8,29.87,South,188,4.0,13.0,77,0.00,,SCT110,0.54,VWS V14.01,2013-04-08 04:31:00,
2013-04-07 23:36:00,64.0,56.7,29.87,South,171,8.0,10.0,77,0.00,,SCT110,0.54,VWS V14.01,2013-04-08 04:36:00,
2013-04-07 23:46:00,63.8,56.5,29.86,South,180,1.0,9.0,77,0.00,,SCT110,0.54,VWS V14.01,2013-04-08 04:46:00,
2013-04-07 23:57:00,63.7,56.4,29.86,South,180,6.0,10.0,77,0.00,,CLR,0.54,VWS V14.01,2013-04-08 04:57:00,